Time;durP1;ratioP1;P1;durP2;ratioP2;P2;SDS_P1;SDS_P2;PMS_P1;PMS_P2;Temp;Humidity;BMP_temperature;BMP_pressure;BME280_temperature;BME280_humidity;BME280_pressure;Samples;Min_cycle;Max_cycle;Signal;HPM_P1;HPM_P2
2022/09/16 00:01:17;;;;;;;6.95;1.10;;;11.40;99.90;;;;;;5048383;28;20041;-70
2022/09/16 00:03:43;;;;;;;4.72;1.00;;;11.40;99.90;;;;;;5031907;28;20077;-70
2022/09/16 00:06:28;;;;;;;9.45;1.13;;;11.40;99.90;;;;;;5050705;28;20041;-69
2022/09/16 00:08:57;;;;;;;6.53;1.10;;;11.60;99.90;;;;;;5044078;28;20043;-71
2022/09/16 00:11:23;;;;;;;7.32;0.88;;;11.60;99.90;;;;;;5055523;28;20388;-70
2022/09/16 00:13:49;;;;;;;8.85;1.00;;;11.70;99.90;;;;;;5048187;28;20120;-71
2022/09/16 00:16:24;;;;;;;4.25;1.10;;;11.60;99.90;;;;;;5042603;28;20052;-71
2022/09/16 00:18:58;;;;;;;5.35;1.33;;;11.70;99.90;;;;;;5051408;28;20083;-70
2022/09/16 00:21:24;;;;;;;4.80;1.00;;;11.70;99.90;;;;;;5051082;28;20546;-69
2022/09/16 00:23:50;;;;;;;5.90;1.10;;;11.80;99.90;;;;;;5051126;28;20037;-71
2022/09/16 00:26:16;;;;;;;8.02;1.40;;;11.80;99.90;;;;;;5050955;28;20075;-67
2022/09/16 00:28:42;;;;;;;3.67;1.10;;;11.70;99.90;;;;;;5046674;28;20029;-70
2022/09/16 00:31:08;;;;;;;10.02;1.30;;;11.80;99.90;;;;;;5048654;28;20037;-70
2022/09/16 00:33:34;;;;;;;6.75;1.15;;;11.70;99.90;;;;;;5054536;28;20049;-68
2022/09/16 00:36:10;;;;;;;6.25;1.25;;;11.80;99.90;;;;;;5049312;28;20048;-69
2022/09/16 00:38:36;;;;;;;5.38;1.00;;;11.60;99.90;;;;;;5053757;28;20418;-69
2022/09/16 00:41:02;;;;;;;5.03;1.20;;;11.70;99.90;;;;;;5049890;28;20040;-70
2022/09/16 00:43:28;;;;;;;5.47;1.00;;;11.80;99.90;;;;;;5050762;28;20056;-69
2022/09/16 00:46:00;;;;;;;6.85;1.20;;;11.60;99.90;;;;;;5044671;28;20499;-71
2022/09/16 00:48:28;;;;;;;9.52;1.40;;;11.70;99.90;;;;;;5045592;28;20044;-70
2022/09/16 00:51:01;;;;;;;7.22;1.20;;;11.70;99.90;;;;;;5069677;28;20148;-70
2022/09/16 00:53:31;;;;;;;7.13;1.25;;;11.80;99.90;;;;;;5050821;28;20033;-71
2022/09/16 00:56:00;;;;;;;9.60;1.42;;;11.70;99.90;;;;;;5051484;28;20041;-71
2022/09/16 00:58:35;;;;;;;6.68;1.00;;;11.60;99.90;;;;;;5059399;28;20132;-71
2022/09/16 01:01:04;;;;;;;6.22;1.20;;;11.60;99.90;;;;;;5050705;28;20044;-70
2022/09/16 01:03:33;;;;;;;5.75;1.08;;;11.50;99.90;;;;;;5045062;28;20407;-70
2022/09/16 01:05:58;;;;;;;5.35;1.20;;;11.60;99.90;;;;;;5069189;28;20040;-70
2022/09/16 01:08:24;;;;;;;6.47;1.13;;;11.60;99.90;;;;;;5055328;28;20048;-70
2022/09/16 01:10:49;;;;;;;8.43;1.60;;;11.50;99.90;;;;;;5054386;28;20105;-69
2022/09/16 01:13:15;;;;;;;5.47;1.20;;;11.40;99.90;;;;;;5067120;28;20055;-70
2022/09/16 01:16:01;;;;;;;7.50;1.08;;;11.40;99.90;;;;;;5057925;28;20043;-70
2022/09/16 01:18:50;;;;;;;5.47;1.17;;;11.40;99.90;;;;;;5056168;28;20053;-70
2022/09/16 01:21:24;;;;;;;7.85;1.35;;;11.50;99.90;;;;;;5058143;28;20514;-70
2022/09/16 01:24:21;;;;;;;6.13;1.20;;;11.50;99.90;;;;;;5066409;28;20072;-70
2022/09/16 01:27:37;;;;;;;9.07;1.40;;;11.40;99.90;;;;;;5052050;28;20037;-70
2022/09/16 01:30:42;;;;;;;5.43;1.15;;;11.50;99.90;;;;;;5045092;28;20072;-72
2022/09/16 01:33:22;;;;;;;6.07;1.42;;;11.50;99.90;;;;;;5055017;28;20049;-73
2022/09/16 01:36:05;;;;;;;5.80;1.13;;;11.50;99.90;;;;;;5033226;28;20041;-72
2022/09/16 01:38:43;;;;;;;5.07;0.80;;;11.40;99.90;;;;;;5052641;28;20398;-70
2022/09/16 01:41:23;;;;;;;5.95;1.05;;;11.60;99.90;;;;;;5074375;28;20063;-68
2022/09/16 01:44:21;;;;;;;6.22;1.17;;;11.40;99.90;;;;;;5053686;28;20053;-70
2022/09/16 01:46:54;;;;;;;8.35;1.10;;;11.30;99.90;;;;;;5027577;28;20049;-70
2022/09/16 01:49:45;;;;;;;4.75;1.13;;;11.30;99.90;;;;;;5050178;28;20127;-70
2022/09/16 01:52:13;;;;;;;4.85;1.17;;;11.50;99.90;;;;;;5064367;28;20420;-70
2022/09/16 01:54:52;;;;;;;8.85;1.20;;;11.50;99.90;;;;;;5053464;28;20044;-70
2022/09/16 01:57:26;;;;;;;7.32;1.33;;;11.30;99.90;;;;;;5059362;28;20038;-69
2022/09/16 01:59:56;;;;;;;4.50;0.93;;;11.40;99.90;;;;;;5054197;28;20364;-69
2022/09/16 02:02:32;;;;;;;4.35;1.10;;;11.30;99.90;;;;;;5044645;28;20072;-70
2022/09/16 02:05:03;;;;;;;6.20;1.33;;;11.40;99.90;;;;;;5052311;28;20051;-71
2022/09/16 02:07:33;;;;;;;3.42;1.00;;;11.40;99.90;;;;;;5055229;28;20130;-70
2022/09/16 02:10:21;;;;;;;4.97;1.25;;;11.40;99.90;;;;;;5054615;28;20068;-69
2022/09/16 02:12:51;;;;;;;8.25;1.25;;;11.30;99.90;;;;;;5068929;28;20048;-71
2022/09/16 02:15:21;;;;;;;7.63;1.10;;;11.20;99.90;;;;;;5054679;28;21548;-70
2022/09/16 02:18:10;;;;;;;7.97;1.27;;;11.40;99.90;;;;;;5063679;28;20038;-69
2022/09/16 02:20:41;;;;;;;11.20;1.40;;;11.20;99.90;;;;;;5056269;28;20055;-69
2022/09/16 02:23:23;;;;;;;5.75;1.20;;;11.40;99.90;;;;;;5072285;28;20112;-67
2022/09/16 02:25:49;;;;;;;6.03;1.37;;;11.30;99.90;;;;;;5052875;28;20037;-68
2022/09/16 02:28:20;;;;;;;5.07;1.23;;;11.40;99.90;;;;;;5062125;28;20120;-69
2022/09/16 02:30:49;;;;;;;6.38;1.40;;;11.30;99.90;;;;;;5075520;28;20041;-69
2022/09/16 02:33:18;;;;;;;9.30;1.48;;;11.20;99.90;;;;;;5057317;28;20041;-70
2022/09/16 02:35:47;;;;;;;5.93;1.42;;;11.10;99.90;;;;;;5058726;28;20052;-71
2022/09/16 02:38:28;;;;;;;8.30;1.30;;;11.10;99.90;;;;;;5054178;28;20638;-70
2022/09/16 02:40:56;;;;;;;4.50;1.30;;;11.00;99.90;;;;;;5065354;28;20046;-71
2022/09/16 02:43:23;;;;;;;5.38;1.13;;;11.10;99.90;;;;;;5060588;28;20044;-71
2022/09/16 02:46:14;;;;;;;6.70;1.40;;;11.10;99.90;;;;;;5060524;28;20048;-71
2022/09/16 02:48:46;;;;;;;6.75;1.50;;;11.00;99.90;;;;;;5060449;28;20347;-71
2022/09/16 02:51:30;;;;;;;9.20;1.40;;;11.00;99.90;;;;;;5054049;28;20393;-70
2022/09/16 02:54:01;;;;;;;8.80;1.42;;;10.80;99.90;;;;;;5073759;28;20041;-71
2022/09/16 02:56:34;;;;;;;6.85;1.42;;;10.80;99.90;;;;;;5059784;28;20053;-72
2022/09/16 02:59:03;;;;;;;7.35;1.30;;;10.90;99.90;;;;;;5054733;28;20041;-71
2022/09/16 03:01:32;;;;;;;7.97;1.20;;;10.80;99.90;;;;;;5073710;28;20127;-73
2022/09/16 03:03:58;;;;;;;9.13;1.00;;;10.70;99.90;;;;;;5059239;28;20066;-70
2022/09/16 03:06:26;;;;;;;5.63;1.20;;;10.70;99.90;;;;;;5059327;28;20037;-72
2022/09/16 03:08:56;;;;;;;6.63;1.20;;;10.80;99.90;;;;;;5051925;28;20402;-71
2022/09/16 03:11:43;;;;;;;8.02;1.35;;;10.90;99.90;;;;;;5057920;28;20040;-71
2022/09/16 03:14:12;;;;;;;6.10;1.20;;;10.90;99.90;;;;;;5062802;28;20093;-71
2022/09/16 03:17:02;;;;;;;8.88;1.30;;;10.80;99.90;;;;;;5055377;28;20049;-71
2022/09/16 03:19:30;;;;;;;9.20;1.60;;;10.80;99.90;;;;;;5077214;28;20040;-72
2022/09/16 03:22:08;;;;;;;9.55;1.48;;;10.90;99.90;;;;;;5058239;28;20395;-72
2022/09/16 03:25:09;;;;;;;9.63;1.50;;;10.80;99.90;;;;;;5059406;28;20131;-70
2022/09/16 03:27:45;;;;;;;7.43;1.65;;;10.90;99.90;;;;;;5048526;28;20114;-71
2022/09/16 03:30:11;;;;;;;9.63;1.90;;;10.80;99.90;;;;;;5060835;28;20045;-71
2022/09/16 03:32:43;;;;;;;12.35;1.60;;;10.70;99.90;;;;;;5064084;28;20044;-71
2022/09/16 03:35:21;;;;;;;11.40;1.80;;;10.80;99.90;;;;;;5056649;28;20048;-72
2022/09/16 03:37:48;;;;;;;8.80;1.70;;;10.90;99.90;;;;;;5061967;28;20296;-71
2022/09/16 03:40:17;;;;;;;8.45;1.80;;;10.80;99.90;;;;;;5059546;28;20107;-70
2022/09/16 03:42:44;;;;;;;9.00;1.60;;;10.70;99.90;;;;;;5073587;28;20048;-71
2022/09/16 03:45:15;;;;;;;7.30;1.55;;;10.80;99.90;;;;;;5061732;28;20037;-71
2022/09/16 03:47:41;;;;;;;8.00;1.60;;;10.70;99.90;;;;;;5048056;28;20676;-70
2022/09/16 03:50:07;;;;;;;9.50;1.50;;;10.80;99.90;;;;;;5055791;28;20040;-70
2022/09/16 03:52:33;;;;;;;7.88;1.30;;;10.80;99.90;;;;;;5055585;28;20432;-70
2022/09/16 03:54:59;;;;;;;10.13;1.40;;;10.70;99.90;;;;;;5058412;28;20029;-70
2022/09/16 03:57:26;;;;;;;8.15;1.33;;;10.70;99.90;;;;;;5059508;28;20087;-70
2022/09/16 03:59:52;;;;;;;5.78;1.30;;;10.60;99.90;;;;;;5053300;28;20372;-70
2022/09/16 04:02:18;;;;;;;4.95;1.35;;;10.50;99.90;;;;;;5049986;28;20182;-70
2022/09/16 04:04:43;;;;;;;5.63;1.27;;;10.60;99.90;;;;;;5053608;28;20398;-70
2022/09/16 04:07:09;;;;;;;6.57;1.30;;;10.50;99.90;;;;;;5052193;28;20112;-70
2022/09/16 04:09:36;;;;;;;6.00;1.30;;;10.60;99.90;;;;;;5054760;28;20518;-71
2022/09/16 04:12:02;;;;;;;6.57;1.35;;;10.50;99.90;;;;;;5067079;28;21242;-70
2022/09/16 04:14:28;;;;;;;6.57;1.40;;;10.50;99.90;;;;;;5060193;28;20078;-71
2022/09/16 04:16:54;;;;;;;4.50;1.30;;;10.50;99.90;;;;;;5063602;28;20491;-71
2022/09/16 04:19:19;;;;;;;10.32;1.60;;;10.40;99.90;;;;;;5054164;28;20065;-70
2022/09/16 04:21:45;;;;;;;6.82;1.55;;;10.40;99.90;;;;;;5053565;28;20486;-70
2022/09/16 04:24:11;;;;;;;4.75;1.35;;;10.30;99.90;;;;;;5056009;28;21468;-70
2022/09/16 04:26:37;;;;;;;6.85;1.30;;;10.30;99.90;;;;;;5038749;28;20059;-70
2022/09/16 04:29:03;;;;;;;6.75;1.45;;;10.30;99.90;;;;;;5054319;28;20072;-70
2022/09/16 04:31:28;;;;;;;10.50;1.45;;;10.40;99.90;;;;;;5053734;28;20044;-70
2022/09/16 04:33:54;;;;;;;8.20;1.55;;;10.30;99.90;;;;;;5058134;28;20045;-70
2022/09/16 04:36:20;;;;;;;6.45;1.48;;;10.30;99.90;;;;;;5056367;28;20608;-71
2022/09/16 04:38:47;;;;;;;8.27;1.38;;;10.20;99.90;;;;;;5045272;28;20052;-69
2022/09/16 04:41:18;;;;;;;7.45;1.67;;;10.20;99.90;;;;;;5051013;28;20565;-71
2022/09/16 04:43:45;;;;;;;7.10;1.63;;;10.40;99.90;;;;;;5051133;28;20537;-70
2022/09/16 04:46:12;;;;;;;7.00;1.58;;;10.20;99.90;;;;;;5063559;28;20094;-70
2022/09/16 04:48:38;;;;;;;7.47;1.52;;;10.30;99.90;;;;;;5041856;28;20040;-70
2022/09/16 04:51:09;;;;;;;7.07;1.70;;;10.30;99.90;;;;;;5046601;28;20111;-73
2022/09/16 04:53:36;;;;;;;7.47;1.70;;;10.20;99.90;;;;;;5066099;28;20041;-70
2022/09/16 04:56:15;;;;;;;11.73;2.72;;;10.20;99.90;;;;;;5041913;28;20037;-70
2022/09/16 04:58:43;;;;;;;10.68;1.90;;;10.20;99.90;;;;;;5074275;28;20406;-70
2022/09/16 05:01:11;;;;;;;11.60;1.83;;;10.40;99.90;;;;;;5052175;28;20497;-70
2022/09/16 05:03:45;;;;;;;8.45;1.80;;;10.40;99.90;;;;;;5050586;28;20045;-71
2022/09/16 05:06:13;;;;;;;9.85;1.58;;;10.50;99.90;;;;;;5060520;28;20037;-68
2022/09/16 05:08:39;;;;;;;7.35;1.13;;;10.50;99.90;;;;;;5047225;28;20037;-69
2022/09/16 05:11:11;;;;;;;9.52;1.30;;;10.50;99.90;;;;;;5046558;28;20049;-68
2022/09/16 05:13:37;;;;;;;11.43;2.05;;;10.60;99.90;;;;;;5046456;28;20029;-68
2022/09/16 05:16:09;;;;;;;13.73;1.67;;;10.40;99.90;;;;;;5050291;28;20102;-69
2022/09/16 05:18:36;;;;;;;8.38;1.88;;;10.40;99.90;;;;;;5063956;28;20040;-70
2022/09/16 05:21:04;;;;;;;8.32;1.25;;;10.50;99.90;;;;;;5045618;28;20118;-69
2022/09/16 05:23:30;;;;;;;8.35;1.27;;;10.50;99.90;;;;;;5046275;28;20617;-70
2022/09/16 05:26:05;;;;;;;12.98;1.60;;;10.30;99.90;;;;;;5050047;28;20136;-68
2022/09/16 05:28:31;;;;;;;7.05;1.40;;;10.40;99.90;;;;;;5063649;28;20068;-69
2022/09/16 05:31:13;;;;;;;7.57;1.17;;;10.50;99.90;;;;;;5048099;28;20067;-70
2022/09/16 05:33:41;;;;;;;14.80;1.80;;;10.60;99.90;;;;;;5043283;28;20045;-69
2022/09/16 05:36:15;;;;;;;9.32;1.35;;;10.60;99.90;;;;;;5045937;28;20060;-68
2022/09/16 05:38:41;;;;;;;8.55;1.20;;;10.40;99.90;;;;;;5043652;28;20036;-68
2022/09/16 05:41:07;;;;;;;10.20;1.58;;;10.50;99.90;;;;;;5048627;28;20053;-69
2022/09/16 05:43:34;;;;;;;11.30;1.52;;;10.40;99.90;;;;;;5046143;28;20123;-69
2022/09/16 05:46:00;;;;;;;7.45;1.08;;;10.40;99.90;;;;;;5059896;28;20041;-67
2022/09/16 05:48:26;;;;;;;13.10;1.90;;;10.40;99.90;;;;;;5044513;28;20041;-68
2022/09/16 05:51:04;;;;;;;8.93;1.30;;;10.50;99.90;;;;;;5046200;28;20055;-68
2022/09/16 05:53:32;;;;;;;6.03;1.20;;;10.50;99.90;;;;;;5051111;28;20036;-68
2022/09/16 05:56:00;;;;;;;5.47;1.38;;;10.40;99.90;;;;;;5046316;28;20530;-67
2022/09/16 05:58:28;;;;;;;10.15;1.60;;;10.50;99.90;;;;;;5056188;28;20133;-68
2022/09/16 06:01:15;;;;;;;8.30;1.63;;;10.40;99.90;;;;;;5045659;28;20044;-68
2022/09/16 06:03:42;;;;;;;8.35;2.33;;;10.50;99.90;;;;;;5059800;28;20048;-68
2022/09/16 06:06:18;;;;;;;7.63;1.60;;;10.50;99.90;;;;;;5054774;28;20097;-68
2022/09/16 06:08:44;;;;;;;11.70;1.63;;;10.50;99.90;;;;;;5057985;28;20041;-67
2022/09/16 06:11:11;;;;;;;7.15;1.40;;;10.60;99.90;;;;;;5057189;28;20411;-68
2022/09/16 06:13:37;;;;;;;7.60;1.88;;;10.50;99.90;;;;;;5058504;28;20076;-68
2022/09/16 06:16:05;;;;;;;8.43;2.17;;;10.50;99.90;;;;;;5055487;28;20044;-68
2022/09/16 06:18:31;;;;;;;13.15;1.70;;;10.60;99.90;;;;;;5056435;28;20101;-68
2022/09/16 06:20:57;;;;;;;11.38;1.70;;;10.80;99.90;;;;;;5050235;28;20041;-68
2022/09/16 06:23:23;;;;;;;9.10;1.90;;;10.70;99.90;;;;;;5047269;28;20479;-67
2022/09/16 06:25:57;;;;;;;10.15;2.03;;;10.80;99.90;;;;;;5054298;28;20048;-68
2022/09/16 06:28:23;;;;;;;8.10;1.85;;;10.90;99.90;;;;;;5058383;28;20408;-67
2022/09/16 06:30:59;;;;;;;9.10;1.58;;;10.90;99.90;;;;;;5060698;28;20033;-69
2022/09/16 06:33:26;;;;;;;9.07;1.33;;;10.80;99.90;;;;;;5074151;28;20121;-67
2022/09/16 06:35:52;;;;;;;7.40;1.27;;;10.90;99.90;;;;;;5055019;28;20043;-68
2022/09/16 06:38:18;;;;;;;14.30;1.65;;;11.00;99.90;;;;;;5051403;28;20045;-68
2022/09/16 06:40:43;;;;;;;7.85;1.48;;;11.20;99.90;;;;;;5056668;28;20063;-67
2022/09/16 06:43:09;;;;;;;6.80;1.42;;;11.10;99.90;;;;;;5057430;28;20041;-69
2022/09/16 06:45:34;;;;;;;10.25;1.65;;;11.30;99.90;;;;;;5058831;28;20072;-70
2022/09/16 06:48:00;;;;;;;8.43;1.35;;;11.40;99.90;;;;;;5054550;28;20037;-66
2022/09/16 06:50:26;;;;;;;11.75;1.48;;;11.50;99.90;;;;;;5057228;28;20094;-66
2022/09/16 06:52:51;;;;;;;5.95;1.40;;;11.50;99.90;;;;;;5054813;28;20324;-67
2022/09/16 06:55:17;;;;;;;9.00;1.25;;;11.60;99.90;;;;;;5051467;28;20124;-65
2022/09/16 06:57:42;;;;;;;10.02;1.45;;;11.70;99.90;;;;;;5069316;28;20449;-65
2022/09/16 07:00:09;;;;;;;14.00;1.75;;;11.80;99.90;;;;;;5052506;28;20037;-66
2022/09/16 07:02:35;;;;;;;8.45;1.38;;;11.90;99.90;;;;;;5058210;28;20407;-67
2022/09/16 07:05:01;;;;;;;12.40;1.30;;;11.90;99.90;;;;;;5057249;28;20045;-71
2022/09/16 07:07:29;;;;;;;11.48;1.38;;;11.90;99.90;;;;;;5053641;28;20048;-66
2022/09/16 07:09:55;;;;;;;12.13;1.15;;;12.00;99.90;;;;;;5054064;28;20040;-69
2022/09/16 07:12:21;;;;;;;11.95;1.95;;;12.10;99.90;;;;;;5049917;28;20037;-71
2022/09/16 07:14:47;;;;;;;12.73;1.42;;;12.10;99.90;;;;;;5055067;28;20078;-69
2022/09/16 07:17:12;;;;;;;11.30;1.55;;;12.20;99.90;;;;;;5052887;28;20041;-67
2022/09/16 07:19:40;;;;;;;11.73;1.40;;;12.30;99.90;;;;;;5052617;28;20149;-70
2022/09/16 07:22:06;;;;;;;9.80;1.42;;;12.30;99.90;;;;;;5052340;28;20124;-69
2022/09/16 07:24:31;;;;;;;7.90;1.30;;;12.40;99.90;;;;;;5053044;28;20037;-70
2022/09/16 07:26:57;;;;;;;11.73;1.40;;;12.50;99.90;;;;;;5069392;28;20429;-68
2022/09/16 07:29:23;;;;;;;8.18;1.17;;;12.60;99.90;;;;;;5046267;28;20466;-70
2022/09/16 07:31:49;;;;;;;10.60;1.40;;;12.70;99.90;;;;;;5048377;28;20033;-68
2022/09/16 07:34:14;;;;;;;9.65;1.33;;;12.80;99.90;;;;;;5062003;28;20059;-66
2022/09/16 07:36:45;;;;;;;10.73;1.85;;;12.90;99.90;;;;;;5062333;28;20056;-70
2022/09/16 07:39:13;;;;;;;12.88;1.48;;;13.00;99.90;;;;;;5074548;28;21327;-68
2022/09/16 07:41:40;;;;;;;9.20;1.27;;;13.00;99.90;;;;;;5059145;28;20049;-69
2022/09/16 07:44:09;;;;;;;9.55;1.42;;;13.10;99.90;;;;;;5053535;28;20084;-68
2022/09/16 07:46:35;;;;;;;9.27;1.65;;;13.20;99.90;;;;;;5053853;28;20422;-72
2022/09/16 07:49:03;;;;;;;7.32;1.30;;;13.40;99.90;;;;;;5057359;28;20040;-71
2022/09/16 07:51:29;;;;;;;14.77;1.70;;;13.30;99.90;;;;;;5051412;28;20124;-71
2022/09/16 07:54:02;;;;;;;9.07;1.30;;;13.40;99.90;;;;;;5050283;28;20087;-70
2022/09/16 07:56:30;;;;;;;9.57;1.40;;;13.50;99.90;;;;;;5067147;28;20036;-70
2022/09/16 07:58:56;;;;;;;11.25;1.45;;;13.60;99.90;;;;;;5052051;28;20087;-71
2022/09/16 08:01:23;;;;;;;9.80;1.20;;;13.70;99.90;;;;;;5049946;28;20045;-69
2022/09/16 08:03:49;;;;;;;8.88;1.30;;;13.70;99.90;;;;;;5069517;28;20072;-71
2022/09/16 08:06:18;;;;;;;13.48;1.50;;;13.80;99.90;;;;;;5057547;28;20088;-71
2022/09/16 08:08:44;;;;;;;10.10;1.40;;;13.80;99.90;;;;;;5056791;28;20032;-71
2022/09/16 08:11:11;;;;;;;9.63;1.70;;;13.90;99.90;;;;;;5061401;28;20044;-70
2022/09/16 08:13:37;;;;;;;7.72;1.40;;;14.00;99.90;;;;;;5054394;28;20062;-69
2022/09/16 08:16:10;;;;;;;7.40;1.25;;;14.00;99.90;;;;;;5055924;28;20040;-72
2022/09/16 08:18:36;;;;;;;10.73;1.58;;;14.10;99.90;;;;;;5059285;28;20040;-70
2022/09/16 08:21:06;;;;;;;11.55;1.60;;;14.10;99.90;;;;;;5053233;28;20056;-71
2022/09/16 08:23:33;;;;;;;10.73;1.50;;;14.20;99.90;;;;;;5055639;28;20138;-68
2022/09/16 08:25:59;;;;;;;15.43;1.52;;;14.20;99.90;;;;;;5040063;28;20099;-68
2022/09/16 08:28:26;;;;;;;9.88;1.17;;;14.20;99.90;;;;;;5052995;28;20575;-72
2022/09/16 08:30:52;;;;;;;11.13;1.58;;;14.20;99.90;;;;;;5051368;28;20422;-68
2022/09/16 08:33:20;;;;;;;14.05;1.63;;;14.20;99.90;;;;;;5075247;28;20044;-68
2022/09/16 08:35:55;;;;;;;6.78;1.17;;;14.30;99.90;;;;;;5056631;28;20436;-70
2022/09/16 08:38:21;;;;;;;6.30;1.10;;;14.40;99.90;;;;;;5057934;28;20403;-69
2022/09/16 08:40:46;;;;;;;9.43;1.17;;;14.50;99.90;;;;;;5057552;28;20029;-69
2022/09/16 08:43:42;;;;;;;10.05;1.50;;;14.60;99.90;;;;;;5043690;28;20036;-67
2022/09/16 08:46:34;;;;;;;12.70;1.40;;;14.70;99.90;;;;;;5069804;28;20053;-71
2022/09/16 08:49:05;;;;;;;;;;;14.80;99.90;;;;;;5061325;28;20538;-71
2022/09/16 08:51:31;;;;;;;10.13;1.83;;;14.90;99.90;;;;;;5051368;28;20363;-72
2022/09/16 08:54:05;;;;;;;10.50;1.35;;;14.90;99.90;;;;;;5062579;28;20556;-69
2022/09/16 08:56:35;;;;;;;10.57;1.60;;;15.10;99.90;;;;;;5068601;28;20079;-73
2022/09/16 08:59:09;;;;;;;10.63;1.48;;;15.00;99.90;;;;;;5059116;28;20514;-68
2022/09/16 09:01:57;;;;;;;14.82;1.73;;;14.90;99.90;;;;;;5057020;28;20032;-70
2022/09/16 09:04:23;;;;;;;16.27;1.30;;;15.00;99.90;;;;;;5068264;28;20036;-67
2022/09/16 09:06:57;;;;;;;12.85;1.85;;;15.00;99.90;;;;;;5064852;28;20037;-69
2022/09/16 09:09:54;;;;;;;13.43;1.77;;;15.10;99.90;;;;;;5050850;28;20037;-73
2022/09/16 09:12:37;;;;;;;12.60;2.03;;;15.10;99.90;;;;;;5060272;28;20079;-69
2022/09/16 09:15:35;;;;;;;11.57;1.85;;;15.10;99.90;;;;;;5068179;28;20048;-71
2022/09/16 09:18:22;;;;;;;12.63;1.77;;;15.10;99.90;;;;;;5058117;28;20060;-72
2022/09/16 09:21:10;;;;;;;13.32;1.60;;;15.20;99.90;;;;;;5050118;28;20048;-70
2022/09/16 09:24:09;;;;;;;13.75;1.85;;;15.30;99.90;;;;;;5034035;28;20135;-71
2022/09/16 09:26:50;;;;;;;9.73;1.60;;;15.30;99.90;;;;;;5019899;28;20099;-70
2022/09/16 09:29:48;;;;;;;11.40;1.45;;;15.40;99.90;;;;;;5043193;28;20091;-71
2022/09/16 09:32:21;;;;;;;8.90;1.58;;;15.50;99.90;;;;;;5049738;28;20034;-70
2022/09/16 09:35:11;;;;;;;15.57;2.03;;;15.60;99.90;;;;;;5040789;28;20038;-69
2022/09/16 09:37:49;;;;;;;9.05;1.55;;;15.60;99.90;;;;;;5050091;28;20071;-71
2022/09/16 09:40:22;;;;;;;11.32;1.20;;;15.60;99.90;;;;;;5050602;28;20135;-71
2022/09/16 09:43:09;;;;;;;11.93;1.88;;;15.80;99.90;;;;;;5050767;28;20049;-71
2022/09/16 09:45:41;;;;;;;15.30;1.80;;;15.90;99.90;;;;;;5062095;28;20052;-68
2022/09/16 09:48:28;;;;;;;13.00;1.98;;;16.00;99.90;;;;;;5033170;28;20042;-73
2022/09/16 09:50:53;;;;;;;10.77;1.35;;;15.80;99.90;;;;;;5048593;28;20129;-72
2022/09/16 09:53:38;;;;;;;10.43;1.33;;;15.60;99.90;;;;;;5062421;28;20119;-70
2022/09/16 09:56:22;;;;;;;6.80;1.20;;;15.20;99.90;;;;;;5049006;28;20394;-70
2022/09/16 09:59:01;;;;;;;10.07;1.38;;;15.10;99.90;;;;;;5050134;28;20049;-70
2022/09/16 10:01:27;;;;;;;10.63;1.50;;;15.10;99.90;;;;;;5048628;28;20126;-70
2022/09/16 10:03:55;;;;;;;14.30;1.73;;;15.30;99.90;;;;;;5050231;28;20084;-69
2022/09/16 10:06:29;;;;;;;12.95;1.70;;;15.50;99.90;;;;;;5052355;28;20053;-69
2022/09/16 10:08:57;;;;;;;12.52;1.58;;;15.70;99.90;;;;;;5046162;28;20055;-71
2022/09/16 10:11:29;;;;;;;11.98;1.45;;;15.80;99.90;;;;;;5043752;28;20037;-69
2022/09/16 10:13:58;;;;;;;8.23;1.52;;;15.90;99.90;;;;;;5065981;28;20118;-71
2022/09/16 10:16:38;;;;;;;11.95;1.70;;;16.00;99.90;;;;;;5049474;28;20492;-70
2022/09/16 10:19:14;;;;;;;13.65;2.15;;;16.00;99.90;;;;;;5047433;28;20041;-72
2022/09/16 10:21:46;;;;;;;11.55;1.77;;;16.00;99.90;;;;;;5034342;28;20119;-68
2022/09/16 10:24:34;;;;;;;;;;;16.10;99.90;;;;;;5050011;28;20049;-71
2022/09/16 10:27:18;;;;;;;8.80;1.23;;;16.10;99.90;;;;;;5047801;28;20402;-71
2022/09/16 10:29:43;;;;;;;9.85;1.23;;;16.10;99.90;;;;;;5046143;28;20042;-66
2022/09/16 10:32:16;;;;;;;13.27;1.65;;;16.10;99.90;;;;;;5045497;28;20464;-68
2022/09/16 10:34:43;;;;;;;9.38;1.38;;;15.90;99.90;;;;;;5029498;28;20037;-70
2022/09/16 10:37:11;;;;;;;13.38;1.75;;;15.80;99.90;;;;;;5029901;28;20037;-71
2022/09/16 10:39:43;;;;;;;11.32;1.60;;;15.80;99.90;;;;;;5059260;28;20053;-70
2022/09/16 10:42:23;;;;;;;10.38;1.30;;;15.80;99.90;;;;;;5048326;28;20036;-72
2022/09/16 10:44:52;;;;;;;11.85;1.88;;;15.90;99.90;;;;;;5065535;28;20048;-71
2022/09/16 10:47:22;;;;;;;15.20;1.65;;;16.10;99.90;;;;;;5050630;28;20049;-75
2022/09/16 10:50:00;;;;;;;11.43;2.22;;;16.40;99.90;;;;;;5053019;28;20049;-72
2022/09/16 10:52:39;;;;;;;12.25;1.60;;;16.50;99.90;;;;;;5059290;28;20049;-70
2022/09/16 10:55:34;;;;;;;11.23;1.77;;;16.50;99.90;;;;;;5048676;28;20041;-72
2022/09/16 10:58:18;;;;;;;5.38;1.10;;;16.40;99.90;;;;;;5052690;28;20052;-69
2022/09/16 11:01:10;;;;;;;14.38;1.48;;;16.20;99.90;;;;;;5052822;28;20143;-68
2022/09/16 11:04:20;;;;;;;10.93;1.63;;;15.70;99.90;;;;;;5050590;28;20057;-70
2022/09/16 11:07:12;;;;;;;13.48;1.85;;;15.40;99.90;;;;;;5047670;28;20057;-71
2022/09/16 11:09:56;;;;;;;18.48;1.90;;;15.50;99.90;;;;;;5036594;28;20044;-68
2022/09/16 11:12:36;;;;;;;12.45;1.73;;;15.80;99.90;;;;;;5050022;28;20037;-69
2022/09/16 11:15:41;;;;;;;12.18;1.70;;;16.00;99.90;;;;;;5047907;28;20041;-69
2022/09/16 11:18:25;;;;;;;11.43;1.58;;;16.00;99.90;;;;;;5023827;28;20364;-70
2022/09/16 11:21:14;;;;;;;17.83;2.10;;;15.80;99.90;;;;;;5051811;28;20052;-71
2022/09/16 11:24:12;;;;;;;7.63;1.40;;;15.90;99.90;;;;;;5068640;28;20053;-71
2022/09/16 11:26:54;;;;;;;11.55;1.40;;;16.10;99.90;;;;;;5065092;28;20053;-73
2022/09/16 11:29:48;;;;;;;9.73;1.40;;;16.10;99.90;;;;;;5052865;28;20511;-69
2022/09/16 11:32:38;;;;;;;12.80;1.70;;;16.30;99.90;;;;;;5051889;28;20495;-69
2022/09/16 11:35:28;;;;;;;11.00;1.90;;;16.50;99.90;;;;;;5051289;28;20122;-69
2022/09/16 11:38:05;;;;;;;15.32;1.60;;;16.60;99.90;;;;;;5052087;28;20053;-72
2022/09/16 11:40:42;;;;;;;13.85;1.67;;;16.70;99.90;;;;;;5050647;28;20144;-67
2022/09/16 11:43:36;;;;;;;15.52;2.70;;;16.60;99.90;;;;;;5050296;28;20079;-69
2022/09/16 11:46:35;;;;;;;13.45;1.65;;;16.70;99.90;;;;;;5053590;28;20051;-68
2022/09/16 11:49:15;;;;;;;10.88;1.70;;;16.50;99.90;;;;;;5051505;28;20044;-69
2022/09/16 11:51:57;;;;;;;10.35;1.40;;;16.20;99.90;;;;;;5050888;28;20045;-69
2022/09/16 11:54:23;;;;;;;;;;;15.90;99.90;;;;;;5035782;28;20045;-68
2022/09/16 11:56:54;;;;;;;11.48;1.67;;;16.10;99.90;;;;;;5031814;28;20411;-68
2022/09/16 11:59:33;;;;;;;9.10;1.40;;;16.20;99.90;;;;;;5044415;28;20131;-74
2022/09/16 12:02:18;;;;;;;6.05;1.20;;;16.30;99.90;;;;;;5051094;28;20055;-74
2022/09/16 12:05:12;;;;;;;10.68;1.42;;;16.40;99.90;;;;;;5038076;28;20037;-74
2022/09/16 12:07:49;;;;;;;11.27;1.63;;;16.60;99.90;;;;;;5048318;28;20116;-73
2022/09/16 12:10:19;;;;;;;9.05;1.10;;;16.90;99.90;;;;;;5035799;28;20046;-69
2022/09/16 12:13:08;;;;;;;6.78;1.15;;;17.00;99.90;;;;;;5030889;28;20041;-69
2022/09/16 12:15:48;;;;;;;6.85;1.00;;;17.00;99.90;;;;;;5032976;28;20044;-70
2022/09/16 12:18:22;;;;;;;11.65;1.33;;;17.00;99.90;;;;;;5031829;28;20509;-71
2022/09/16 12:21:16;;;;;;;11.63;1.60;;;16.90;99.90;;;;;;5039639;28;20110;-67
2022/09/16 12:23:46;;;;;;;12.38;2.08;;;16.10;99.90;;;;;;5048838;28;20052;-70
2022/09/16 12:26:24;;;;;;;10.65;1.52;;;15.10;99.90;;;;;;5051184;28;20063;-67
2022/09/16 12:29:02;;;;;;;9.50;1.30;;;14.40;99.90;;;;;;5049587;28;20044;-67
2022/09/16 12:31:47;;;;;;;14.02;1.35;;;14.40;99.90;;;;;;5057734;28;20119;-70
2022/09/16 12:34:16;;;;;;;8.02;1.30;;;14.60;99.90;;;;;;5071026;28;20075;-68
2022/09/16 12:36:48;;;;;;;10.02;1.73;;;14.80;99.90;;;;;;5069910;28;20036;-69
2022/09/16 12:39:14;;;;;;;11.10;1.20;;;14.90;99.90;;;;;;5064992;28;20037;-71
2022/09/16 12:42:07;;;;;;;13.25;1.10;;;14.70;99.90;;;;;;5066871;28;20087;-69
2022/09/16 12:45:17;;;;;;;10.35;1.20;;;14.50;99.90;;;;;;5066123;28;20040;-69
2022/09/16 12:48:21;;;;;;;11.90;1.73;;;14.70;99.90;;;;;;5054595;28;20079;-70
2022/09/16 12:50:53;;;;;;;16.80;2.25;;;15.10;99.90;;;;;;5050657;28;20131;-72
2022/09/16 12:53:48;;;;;;;9.30;1.37;;;15.40;99.90;;;;;;5049557;28;20041;-70
2022/09/16 12:56:32;;;;;;;10.15;1.40;;;15.70;99.90;;;;;;5066765;28;20056;-74
2022/09/16 12:59:00;;;;;;;9.70;1.30;;;15.90;99.90;;;;;;5050435;28;20044;-71
2022/09/16 13:01:38;;;;;;;8.93;1.15;;;15.90;99.90;;;;;;5048865;28;20458;-70
2022/09/16 13:04:32;;;;;;;9.45;1.20;;;15.70;99.90;;;;;;5046285;28;20041;-66
2022/09/16 13:06:58;;;;;;;10.57;1.42;;;15.60;99.90;;;;;;5046748;28;20107;-70
2022/09/16 13:09:26;;;;;;;10.23;1.30;;;15.40;99.90;;;;;;5054131;28;20412;-70
2022/09/16 13:11:54;;;;;;;14.43;1.73;;;15.40;99.90;;;;;;5050191;28;20075;-72
2022/09/16 13:14:28;;;;;;;10.13;1.35;;;15.30;99.90;;;;;;5048493;28;20128;-71
2022/09/16 13:16:58;;;;;;;6.85;1.02;;;15.30;99.90;;;;;;5046892;28;20124;-72